createdAt,value
2022-12-25T00:02:23.353Z,38.43
2022-12-25T00:04:51.967Z,39.87
2022-12-25T00:07:20.459Z,34.07
2022-12-25T00:09:48.891Z,39.07
2022-12-25T00:12:17.415Z,39.43
2022-12-25T00:14:45.984Z,40.20
2022-12-25T00:17:14.409Z,35.40
2022-12-25T00:19:44.300Z,36.13
2022-12-25T00:22:12.757Z,46.87
2022-12-25T00:24:41.333Z,41.43
2022-12-25T00:27:10.029Z,41.77
2022-12-25T00:29:38.402Z,35.30
2022-12-25T00:32:06.799Z,35.33
2022-12-25T00:34:35.203Z,38.70
2022-12-25T00:37:05.130Z,41.03
2022-12-25T00:39:33.685Z,38.23
2022-12-25T00:42:20.530Z,35.60
2022-12-25T00:44:49.381Z,34.87
2022-12-25T00:47:19.007Z,35.80
2022-12-25T00:49:47.677Z,38.87
2022-12-25T00:52:17.509Z,34.93
2022-12-25T00:54:46.008Z,33.90
2022-12-25T00:57:14.475Z,34.73
2022-12-25T00:59:42.884Z,35.40
2022-12-25T01:02:26.569Z,34.00
2022-12-25T01:04:56.149Z,37.20
2022-12-25T01:07:26.921Z,35.00
2022-12-25T01:10:13.210Z,38.60
2022-12-25T01:12:42.872Z,37.40
2022-12-25T01:15:12.278Z,38.80
2022-12-25T01:17:40.760Z,43.23
2022-12-25T01:20:09.934Z,37.73
2022-12-25T01:22:39.895Z,37.93
2022-12-25T01:25:09.230Z,42.13
2022-12-25T01:27:37.677Z,48.80
2022-12-25T01:30:06.627Z,36.77
2022-12-25T01:32:35.049Z,35.77
2022-12-25T01:35:03.638Z,45.73
2022-12-25T01:37:32.105Z,42.30
2022-12-25T01:40:01.964Z,45.77
2022-12-25T01:42:30.685Z,44.03
2022-12-25T01:45:17.263Z,42.13
2022-12-25T01:47:45.724Z,39.10
2022-12-25T01:50:14.205Z,40.10
2022-12-25T01:52:42.699Z,43.13
2022-12-25T01:55:12.777Z,40.03
2022-12-25T01:57:41.775Z,37.40
2022-12-25T02:00:11.108Z,36.67
2022-12-25T02:02:40.455Z,36.37
2022-12-25T02:05:12.098Z,39.67
2022-12-25T02:07:41.761Z,35.60
2022-12-25T02:10:12.914Z,35.17
2022-12-25T02:12:41.576Z,38.07
2022-12-25T02:15:11.963Z,36.90
2022-12-25T02:17:43.118Z,36.90
2022-12-25T02:20:18.860Z,36.77
2022-12-25T02:22:57.381Z,36.87
2022-12-25T02:25:32.674Z,34.90
2022-12-25T02:28:15.295Z,35.47
2022-12-25T02:30:46.131Z,37.43
2022-12-25T02:33:34.170Z,36.43
2022-12-25T02:36:05.763Z,35.67
2022-12-25T02:38:37.265Z,36.37
2022-12-25T02:41:08.016Z,37.50
2022-12-25T02:43:57.773Z,37.17
2022-12-25T02:46:44.296Z,34.07
2022-12-25T02:49:32.337Z,35.10
2022-12-25T02:52:20.940Z,37.87
2022-12-25T02:55:12.246Z,35.80
2022-12-25T02:58:00.718Z,36.23
2022-12-25T03:00:48.905Z,35.70
2022-12-25T03:03:31.956Z,34.77
2022-12-25T03:06:19.970Z,35.03
2022-12-25T03:08:50.624Z,35.60
2022-12-25T03:11:35.783Z,34.87
2022-12-25T03:14:19.152Z,33.47
2022-12-25T03:16:53.813Z,34.60
2022-12-25T03:19:41.339Z,34.30
2022-12-25T03:22:29.292Z,34.40
2022-12-25T03:25:15.487Z,34.07
2022-12-25T03:27:45.218Z,34.73
2022-12-25T03:30:31.414Z,34.70
2022-12-25T03:33:23.216Z,33.93
2022-12-25T03:36:03.282Z,37.33
2022-12-25T03:39:02.474Z,35.50
2022-12-25T03:41:50.874Z,34.70
2022-12-25T03:44:56.677Z,35.40
2022-12-25T03:47:54.034Z,33.90
2022-12-25T03:50:43.659Z,33.67
2022-12-25T03:53:30.329Z,33.70
2022-12-25T03:56:16.267Z,35.50
2022-12-25T03:59:09.821Z,34.17
2022-12-25T04:01:56.068Z,34.47
2022-12-25T04:04:42.381Z,34.47
2022-12-25T04:07:29.511Z,34.87
2022-12-25T04:10:15.494Z,34.30
2022-12-25T04:13:01.407Z,33.60
2022-12-25T04:15:47.401Z,32.73
2022-12-25T04:18:33.273Z,33.57
2022-12-25T04:21:19.393Z,34.40
2022-12-25T04:24:06.888Z,32.93
2022-12-25T04:26:52.985Z,32.53
2022-12-25T04:29:39.089Z,32.67
2022-12-25T04:32:25.160Z,32.77
2022-12-25T04:35:11.321Z,32.10
2022-12-25T04:37:39.774Z,32.23
2022-12-25T04:40:10.679Z,32.70
2022-12-25T04:42:39.164Z,32.23
2022-12-25T04:45:08.025Z,31.90
2022-12-25T04:47:36.476Z,32.50
2022-12-25T04:50:05.003Z,33.17
2022-12-25T04:52:36.325Z,32.83
2022-12-25T04:55:05.341Z,32.87
2022-12-25T04:57:35.609Z,32.30
2022-12-25T05:00:04.105Z,33.03
2022-12-25T05:02:32.727Z,32.90
2022-12-25T05:05:01.323Z,31.50
2022-12-25T05:07:29.832Z,35.37
2022-12-25T05:09:58.389Z,33.80
2022-12-25T05:12:26.857Z,33.57
2022-12-25T05:14:56.669Z,32.40
2022-12-25T05:17:25.109Z,34.50
2022-12-25T05:19:53.476Z,34.90
2022-12-25T05:22:21.905Z,33.17
2022-12-25T05:24:50.370Z,33.90
2022-12-25T05:27:18.876Z,34.13
2022-12-25T05:29:47.379Z,33.17
2022-12-25T05:32:17.205Z,33.33
2022-12-25T05:34:45.651Z,34.50
2022-12-25T05:37:14.256Z,34.60
2022-12-25T05:39:42.604Z,34.23
2022-12-25T05:42:11.051Z,34.17
2022-12-25T05:44:39.479Z,34.50
2022-12-25T05:47:07.941Z,31.77
2022-12-25T05:49:38.030Z,30.90
2022-12-25T05:52:06.507Z,31.87
2022-12-25T05:54:35.774Z,31.77
2022-12-25T05:57:04.364Z,32.50
2022-12-25T05:59:32.996Z,33.10
2022-12-25T06:02:01.897Z,31.43
2022-12-25T06:04:30.556Z,32.03
2022-12-25T06:07:00.528Z,31.60
2022-12-25T06:09:28.956Z,33.57
2022-12-25T06:11:57.407Z,32.47
2022-12-25T06:14:25.878Z,33.17
2022-12-25T06:16:54.682Z,33.37
2022-12-25T06:19:23.894Z,31.07
2022-12-25T06:21:54.948Z,31.87
2022-12-25T06:24:24.944Z,30.67
2022-12-25T06:26:53.447Z,34.30
2022-12-25T06:29:21.855Z,31.40
2022-12-25T06:31:50.440Z,31.30
2022-12-25T06:34:19.013Z,33.80
2022-12-25T06:36:47.456Z,31.10
2022-12-25T06:39:15.952Z,31.67
2022-12-25T06:41:45.899Z,30.93
2022-12-25T06:44:14.338Z,33.03
2022-12-25T06:46:42.803Z,32.07
2022-12-25T06:49:11.816Z,31.03
2022-12-25T06:51:40.327Z,30.03
2022-12-25T06:54:08.812Z,31.67
2022-12-25T06:56:37.206Z,31.00
2022-12-25T06:59:07.855Z,29.33
2022-12-25T07:01:37.312Z,29.27
2022-12-25T07:04:06.940Z,30.23
2022-12-25T07:06:35.561Z,29.30
2022-12-25T07:09:03.981Z,31.20
2022-12-25T07:11:32.420Z,83.93
2022-12-25T07:14:00.860Z,40.87
2022-12-25T07:16:30.676Z,33.23
2022-12-25T07:19:01.483Z,29.47
2022-12-25T07:21:30.005Z,30.00
2022-12-25T07:23:58.443Z,30.67
2022-12-25T07:26:27.007Z,37.73
2022-12-25T07:28:56.949Z,38.40
2022-12-25T07:31:25.397Z,36.73
2022-12-25T07:33:56.326Z,40.80
2022-12-25T07:36:24.727Z,43.20
2022-12-25T07:38:53.233Z,40.70
2022-12-25T07:41:21.719Z,40.50
2022-12-25T07:43:52.093Z,54.87
2022-12-25T07:46:21.340Z,53.70
2022-12-25T07:48:49.872Z,41.80
2022-12-25T07:51:19.715Z,39.60
2022-12-25T07:53:48.186Z,40.53
2022-12-25T07:56:17.555Z,40.73
2022-12-25T07:58:46.351Z,38.53
2022-12-25T08:01:16.744Z,38.20
2022-12-25T08:03:45.931Z,37.33
2022-12-25T08:06:14.428Z,37.13
2022-12-25T08:08:44.301Z,35.90
2022-12-25T08:11:12.811Z,39.37
2022-12-25T08:13:41.191Z,37.47
2022-12-25T08:16:10.837Z,34.47
2022-12-25T08:18:40.261Z,35.70
2022-12-25T08:21:11.734Z,36.30
2022-12-25T08:23:41.302Z,35.07
2022-12-25T08:26:13.031Z,34.57
2022-12-25T08:28:41.607Z,36.13
2022-12-25T08:31:10.963Z,38.90
2022-12-25T08:33:39.511Z,38.47
2022-12-25T08:36:11.833Z,36.20
2022-12-25T08:38:40.753Z,32.87
2022-12-25T08:41:09.511Z,35.77
2022-12-25T08:43:39.473Z,34.10
2022-12-25T08:46:08.601Z,36.90
2022-12-25T08:48:37.052Z,37.07
2022-12-25T08:51:06.226Z,36.40
2022-12-25T08:53:34.671Z,33.60
2022-12-25T08:56:04.705Z,35.20
2022-12-25T08:58:33.334Z,33.77
2022-12-25T09:01:03.382Z,32.97
2022-12-25T09:03:33.384Z,32.77
2022-12-25T09:06:04.268Z,34.73
2022-12-25T09:08:32.778Z,34.50
2022-12-25T09:11:03.342Z,33.67
2022-12-25T09:13:32.180Z,34.53
2022-12-25T09:16:00.931Z,33.33
2022-12-25T09:18:30.807Z,35.33
2022-12-25T09:21:00.207Z,35.50
2022-12-25T09:23:28.864Z,33.70
2022-12-25T09:25:57.371Z,36.03
2022-12-25T09:28:25.844Z,36.37
2022-12-25T09:30:54.691Z,34.40
2022-12-25T09:33:23.653Z,34.80
2022-12-25T09:35:56.939Z,35.17
2022-12-25T09:38:25.681Z,33.03
2022-12-25T09:40:59.872Z,34.67
2022-12-25T09:43:29.092Z,35.57
2022-12-25T09:45:58.976Z,35.17
2022-12-25T09:48:28.560Z,35.17
2022-12-25T09:51:01.925Z,33.50
2022-12-25T09:53:34.242Z,34.10
2022-12-25T09:56:06.014Z,33.30
2022-12-25T09:58:35.802Z,50.63
2022-12-25T10:01:08.267Z,38.40
2022-12-25T10:03:48.606Z,34.93
2022-12-25T10:06:21.000Z,36.23
2022-12-25T10:08:56.985Z,35.53
2022-12-25T10:11:32.433Z,32.30
2022-12-25T10:14:05.935Z,32.20
2022-12-25T10:16:37.084Z,33.03
2022-12-25T10:19:12.285Z,34.10
2022-12-25T10:21:42.886Z,32.83
2022-12-25T10:24:20.686Z,32.57
2022-12-25T10:26:50.634Z,31.20
2022-12-25T10:29:20.023Z,32.73
2022-12-25T10:31:49.943Z,41.97
2022-12-25T10:34:18.370Z,30.73
2022-12-25T10:36:50.088Z,30.93
2022-12-25T10:39:19.351Z,50.07
2022-12-25T10:41:58.406Z,36.23
2022-12-25T10:44:26.814Z,46.07
2022-12-25T10:46:56.424Z,45.83
2022-12-25T10:49:25.852Z,58.90
2022-12-25T10:51:55.711Z,38.30
2022-12-25T10:54:25.282Z,36.70
2022-12-25T10:56:58.125Z,35.30
2022-12-25T10:59:27.689Z,33.70
2022-12-25T11:01:56.737Z,32.50
2022-12-25T11:04:28.667Z,31.67
2022-12-25T11:06:59.676Z,30.70
2022-12-25T11:09:28.201Z,38.57
2022-12-25T11:11:56.730Z,34.50
2022-12-25T11:14:27.164Z,30.93
2022-12-25T11:16:55.656Z,30.77
2022-12-25T11:19:28.746Z,29.67
2022-12-25T11:21:58.108Z,36.30
2022-12-25T11:24:29.868Z,36.67
2022-12-25T11:26:59.344Z,33.00
2022-12-25T11:29:34.326Z,28.97
2022-12-25T11:32:04.217Z,30.47
2022-12-25T11:34:34.941Z,29.40
2022-12-25T11:37:04.272Z,29.07
2022-12-25T11:39:35.976Z,27.80
2022-12-25T11:42:06.996Z,27.33
2022-12-25T11:44:39.185Z,28.33
2022-12-25T11:47:13.013Z,26.83
2022-12-25T11:49:49.446Z,27.53
2022-12-25T11:52:19.406Z,35.07
2022-12-25T11:54:51.872Z,27.43
2022-12-25T11:57:20.369Z,26.73
2022-12-25T11:59:53.939Z,28.00
2022-12-25T12:02:25.965Z,26.67
2022-12-25T12:04:58.933Z,26.37
2022-12-25T12:07:29.357Z,24.83
2022-12-25T12:10:03.636Z,24.57
2022-12-25T12:12:36.273Z,31.40
2022-12-25T12:15:08.808Z,38.63
2022-12-25T12:17:37.446Z,29.50
2022-12-25T12:20:13.191Z,26.33
2022-12-25T12:22:49.442Z,27.30
2022-12-25T12:25:20.083Z,34.10
2022-12-25T12:27:55.555Z,36.57
2022-12-25T12:30:28.820Z,46.27
2022-12-25T12:32:59.217Z,37.27
2022-12-25T12:35:28.648Z,96.53
2022-12-25T12:37:58.522Z,127.90
2022-12-25T12:40:34.275Z,42.33
2022-12-25T12:43:03.544Z,26.90
2022-12-25T12:45:33.962Z,23.27
2022-12-25T12:48:02.578Z,24.67
2022-12-25T12:50:35.750Z,25.13
2022-12-25T12:53:18.030Z,23.40
2022-12-25T12:55:47.873Z,23.27
2022-12-25T12:58:27.777Z,23.20
2022-12-25T13:01:02.580Z,23.37
2022-12-25T13:03:41.102Z,23.40
2022-12-25T13:06:13.804Z,23.53
2022-12-25T13:08:48.351Z,22.40
2022-12-25T13:11:21.347Z,22.83
2022-12-25T13:13:51.108Z,23.30
2022-12-25T13:16:24.149Z,24.30
2022-12-25T13:18:53.544Z,23.47
2022-12-25T13:21:24.002Z,23.00
2022-12-25T13:23:57.854Z,24.07
2022-12-25T13:26:27.777Z,24.83
2022-12-25T13:28:56.313Z,23.97
2022-12-25T13:31:25.736Z,24.33
2022-12-25T13:33:57.983Z,25.43
2022-12-25T13:36:27.570Z,25.23
2022-12-25T13:38:57.880Z,24.20
2022-12-25T13:41:46.673Z,24.43
2022-12-25T13:44:18.498Z,22.63
2022-12-25T13:46:47.078Z,24.70
2022-12-25T13:49:16.459Z,24.70
2022-12-25T13:51:44.941Z,23.67
2022-12-25T13:54:14.144Z,23.80
2022-12-25T13:56:49.295Z,23.63
2022-12-25T13:59:18.852Z,23.47
2022-12-25T14:01:47.671Z,23.67
2022-12-25T14:04:17.895Z,23.53
2022-12-25T14:06:46.448Z,23.97
2022-12-25T14:09:15.043Z,23.63
2022-12-25T14:11:45.989Z,23.20
2022-12-25T14:14:19.890Z,25.07
2022-12-25T14:16:49.826Z,24.70
2022-12-25T14:19:36.310Z,22.70
2022-12-25T14:22:05.994Z,22.20
2022-12-25T14:24:35.907Z,22.40
2022-12-25T14:27:05.310Z,23.50
2022-12-25T14:29:37.927Z,23.67
2022-12-25T14:32:07.826Z,23.77
2022-12-25T14:34:36.390Z,23.77
2022-12-25T14:37:18.247Z,25.17
2022-12-25T14:39:48.061Z,24.43
2022-12-25T14:42:21.455Z,23.60
2022-12-25T14:44:59.875Z,22.97
2022-12-25T14:47:28.600Z,21.60
2022-12-25T14:49:57.451Z,23.63
2022-12-25T14:52:27.567Z,23.70
2022-12-25T14:54:57.667Z,25.30
2022-12-25T14:57:34.788Z,24.57
2022-12-25T15:00:10.067Z,25.60
2022-12-25T15:02:44.969Z,24.83
2022-12-25T15:05:27.483Z,23.40
2022-12-25T15:08:03.507Z,23.97
2022-12-25T15:10:59.730Z,25.77
2022-12-25T15:13:20.535Z,24.47
2022-12-25T15:15:52.960Z,24.47
2022-12-25T15:18:22.296Z,24.03
2022-12-25T15:20:52.371Z,24.63
2022-12-25T15:23:21.797Z,25.00
2022-12-25T15:25:51.121Z,25.70
2022-12-25T15:28:19.560Z,25.77
2022-12-25T15:30:49.825Z,24.73
2022-12-25T15:33:20.539Z,24.37
2022-12-25T15:35:49.172Z,25.33
2022-12-25T15:38:17.677Z,24.07
2022-12-25T15:40:46.177Z,26.50
2022-12-25T15:43:39.236Z,24.37
2022-12-25T15:46:03.972Z,25.93
2022-12-25T15:48:33.841Z,25.30
2022-12-25T15:51:02.261Z,25.83
2022-12-25T15:53:30.749Z,25.23
2022-12-25T15:55:59.237Z,24.93
2022-12-25T15:58:27.714Z,27.33
2022-12-25T16:00:56.224Z,27.33
2022-12-25T16:03:24.688Z,27.70
2022-12-25T16:05:54.749Z,29.97
2022-12-25T16:08:23.608Z,29.57
2022-12-25T16:10:53.175Z,30.03
2022-12-25T16:13:21.575Z,29.77
2022-12-25T16:15:50.029Z,31.30
2022-12-25T16:18:18.438Z,29.80
2022-12-25T16:20:46.989Z,31.27
2022-12-25T16:23:16.830Z,29.13
2022-12-25T16:25:45.323Z,30.27
2022-12-25T16:28:13.854Z,30.33
2022-12-25T16:30:42.734Z,28.33
2022-12-25T16:33:12.032Z,28.50
2022-12-25T16:35:40.411Z,28.73
2022-12-25T16:38:08.962Z,28.17
2022-12-25T16:40:38.864Z,29.30
2022-12-25T16:43:07.280Z,30.23
2022-12-25T16:45:40.431Z,31.23
2022-12-25T16:48:09.308Z,30.13
2022-12-25T16:50:40.267Z,34.37
2022-12-25T16:53:08.807Z,31.77
2022-12-25T16:55:38.747Z,30.73
2022-12-25T16:58:08.872Z,34.67
2022-12-25T17:00:37.801Z,37.33
2022-12-25T17:03:06.420Z,34.17
2022-12-25T17:05:35.629Z,31.33
2022-12-25T17:08:04.156Z,31.50
2022-12-25T17:10:32.634Z,32.10
2022-12-25T17:13:01.074Z,31.47
2022-12-25T17:15:31.119Z,30.70
2022-12-25T17:17:59.594Z,30.40
2022-12-25T17:20:28.079Z,31.23
2022-12-25T17:22:57.658Z,31.73
2022-12-25T17:25:26.784Z,33.67
2022-12-25T17:27:55.255Z,34.77
2022-12-25T17:30:23.745Z,33.47
2022-12-25T17:32:55.294Z,35.07
2022-12-25T17:35:24.482Z,33.63
2022-12-25T17:37:52.914Z,33.73
2022-12-25T17:40:22.750Z,33.03
2022-12-25T17:42:52.940Z,31.40
2022-12-25T17:45:21.401Z,41.87
2022-12-25T17:47:49.816Z,48.53
2022-12-25T17:50:19.680Z,38.43
2022-12-25T17:52:48.103Z,33.90
2022-12-25T17:55:16.592Z,34.50
2022-12-25T17:57:45.068Z,34.73
2022-12-25T18:00:14.226Z,26.30
2022-12-25T18:02:44.551Z,25.97
2022-12-25T18:05:13.110Z,26.40
2022-12-25T18:07:42.855Z,26.00
2022-12-25T18:10:11.582Z,24.97
2022-12-25T18:12:40.018Z,26.17
2022-12-25T18:15:08.916Z,25.20
2022-12-25T18:17:37.297Z,27.17
2022-12-25T18:20:06.142Z,26.63
2022-12-25T18:22:35.540Z,27.67
2022-12-25T18:25:05.558Z,26.60
2022-12-25T18:27:34.041Z,26.23
2022-12-25T18:30:02.527Z,26.37
2022-12-25T18:32:30.955Z,27.97
2022-12-25T18:34:59.384Z,28.73
2022-12-25T18:37:31.885Z,28.20
2022-12-25T18:40:03.247Z,28.87
2022-12-25T18:42:43.172Z,29.00
2022-12-25T18:45:12.624Z,30.07
2022-12-25T18:47:41.374Z,30.17
2022-12-25T18:50:10.823Z,29.83
2022-12-25T18:52:48.522Z,29.83
2022-12-25T18:55:19.812Z,31.10
2022-12-25T18:57:51.120Z,30.63
2022-12-25T19:00:20.069Z,31.43
2022-12-25T19:02:49.039Z,30.27
2022-12-25T19:05:18.097Z,31.43
2022-12-25T19:07:46.599Z,31.63
2022-12-25T19:10:15.048Z,32.23
2022-12-25T19:12:43.553Z,32.70
2022-12-25T19:15:13.573Z,34.37
2022-12-25T19:17:41.981Z,34.30
2022-12-25T19:20:11.036Z,33.93
2022-12-25T19:22:39.492Z,33.00
2022-12-25T19:25:08.661Z,32.17
2022-12-25T19:27:37.142Z,33.10
2022-12-25T19:30:06.235Z,33.43
2022-12-25T19:32:35.975Z,36.57
2022-12-25T19:35:10.860Z,33.57
2022-12-25T19:37:39.316Z,34.83
2022-12-25T19:40:08.195Z,37.93
2022-12-25T19:42:36.629Z,37.50
2022-12-25T19:45:05.175Z,36.00
2022-12-25T19:47:33.633Z,39.47
2022-12-25T19:50:03.919Z,37.80
2022-12-25T19:52:32.413Z,37.87
2022-12-25T19:55:00.998Z,36.70
2022-12-25T19:57:29.662Z,35.57
2022-12-25T19:59:58.182Z,36.67
2022-12-25T20:02:27.758Z,36.80
2022-12-25T20:04:56.663Z,35.20
2022-12-25T20:07:26.581Z,35.30
2022-12-25T20:09:55.166Z,37.13
2022-12-25T20:12:23.621Z,35.93
2022-12-25T20:14:52.044Z,35.03
2022-12-25T20:17:20.524Z,35.73
2022-12-25T20:19:48.972Z,36.60
2022-12-25T20:22:17.540Z,32.27
2022-12-25T20:24:49.124Z,33.93
2022-12-25T20:27:17.595Z,34.37
2022-12-25T20:29:46.026Z,33.50
2022-12-25T20:32:14.679Z,35.73
2022-12-25T20:34:43.198Z,35.13
2022-12-25T20:37:11.602Z,35.27
2022-12-25T20:39:40.265Z,32.90
2022-12-25T20:42:10.252Z,32.93
2022-12-25T20:44:39.052Z,35.33
2022-12-25T20:47:07.472Z,36.70
2022-12-25T20:49:35.973Z,34.00
2022-12-25T20:52:05.865Z,34.87
2022-12-25T20:54:34.553Z,37.80
2022-12-25T20:57:03.111Z,35.40
2022-12-25T20:59:37.461Z,36.27
2022-12-25T21:02:06.510Z,35.67
2022-12-25T21:04:35.185Z,37.17
2022-12-25T21:07:03.714Z,36.80
2022-12-25T21:09:32.368Z,37.87
2022-12-25T21:12:00.799Z,34.93
2022-12-25T21:14:30.268Z,35.17
2022-12-25T21:17:00.241Z,36.33
2022-12-25T21:19:28.738Z,34.87
2022-12-25T21:21:57.228Z,34.23
2022-12-25T21:24:25.721Z,33.03
2022-12-25T21:26:54.180Z,32.70
2022-12-25T21:29:24.398Z,32.20
2022-12-25T21:32:10.632Z,32.43
2022-12-25T21:34:40.579Z,33.47
2022-12-25T21:37:09.060Z,33.40
2022-12-25T21:39:37.621Z,34.07
2022-12-25T21:42:06.093Z,32.00
2022-12-25T21:44:34.604Z,32.77
2022-12-25T21:47:03.136Z,32.37
2022-12-25T21:49:49.329Z,33.47
2022-12-25T21:52:19.474Z,32.70
2022-12-25T21:54:47.951Z,30.13
2022-12-25T21:57:16.392Z,32.13
2022-12-25T21:59:45.081Z,31.77
2022-12-25T22:02:13.695Z,30.83
2022-12-25T22:04:42.613Z,31.10
2022-12-25T22:07:18.663Z,31.33
2022-12-25T22:09:49.554Z,31.80
2022-12-25T22:12:36.667Z,32.83
2022-12-25T22:15:07.054Z,34.70
2022-12-25T22:17:54.080Z,32.83
2022-12-25T22:20:23.489Z,33.73
2022-12-25T22:22:51.977Z,33.73
2022-12-25T22:25:22.225Z,35.00
2022-12-25T22:27:51.210Z,32.03
2022-12-25T22:30:20.897Z,31.67
2022-12-25T22:32:49.715Z,28.73
2022-12-25T22:35:18.734Z,27.27
2022-12-25T22:37:48.326Z,33.67
2022-12-25T22:40:18.008Z,31.43
2022-12-25T22:42:47.858Z,30.57
2022-12-25T22:45:16.674Z,29.67
2022-12-25T22:47:45.105Z,30.10
2022-12-25T22:50:14.698Z,39.40
2022-12-25T22:52:43.146Z,33.43
2022-12-25T22:55:12.243Z,30.97
2022-12-25T22:57:40.755Z,30.03
2022-12-25T23:00:11.454Z,28.37
2022-12-25T23:02:40.067Z,28.60
2022-12-25T23:05:09.356Z,30.03
2022-12-25T23:07:37.856Z,29.93
2022-12-25T23:10:06.797Z,29.47
2022-12-25T23:12:52.772Z,28.07
2022-12-25T23:15:22.669Z,27.83
2022-12-25T23:18:08.518Z,29.37
2022-12-25T23:20:55.096Z,29.13
2022-12-25T23:23:40.932Z,29.00
2022-12-25T23:26:09.643Z,31.50
2022-12-25T23:28:56.113Z,28.77
2022-12-25T23:31:27.304Z,28.00
2022-12-25T23:33:55.927Z,29.63
2022-12-25T23:36:24.440Z,30.60
2022-12-25T23:38:52.859Z,28.10
2022-12-25T23:41:21.469Z,28.77
2022-12-25T23:43:49.938Z,30.17
2022-12-25T23:46:18.592Z,31.30
2022-12-25T23:48:48.497Z,31.57
2022-12-25T23:51:16.951Z,28.23
2022-12-25T23:53:45.400Z,27.07
2022-12-25T23:56:14.832Z,26.37
2022-12-25T23:58:45.252Z,25.53
